5NAAT WIKK-WMKI
Flight info
| Callsign | 5NAAT |
|---|---|
| Flight time | N/A |
| Altitude | 10000 |
| Route | KIRDA W26 TPG A464 SJ B469 AKOMA Y339 AROSO Y513 KALIL Y501 OGANA G582 VBA B466 SUKAT A457 TEPUS TEPUS2E |
| Aircraft | BE36/L-BDFGLORY/S |
Departure
| Time | 2026-04-12 08:17 |
|---|---|
| Airport | Depati Amir Airport (WIKK) |
Arrival
| Time | N/A |
|---|---|
| Airport | Sultan Azlan Shah Airport (WMKI) |
| Time | Latitude | Longitude | Altitude | Speed | Heading |
|---|---|---|---|---|---|
| 2026-04-12 07:52 | -2.16263 | 106.13749 | 111 ft | 0 kts | 303° |
| 2026-04-12 08:11 | -2.16264 | 106.13751 | 111 ft | 2 kts | 303° |
| 2026-04-12 08:11 | -2.16270 | 106.13765 | 111 ft | 2 kts | 269° |
| 2026-04-12 08:11 | -2.16265 | 106.13780 | 111 ft | 2 kts | 202° |
| 2026-04-12 08:12 | -2.16256 | 106.13781 | 111 ft | 0 kts | 178° |
| 2026-04-12 08:13 | -2.16283 | 106.13790 | 111 ft | 8 kts | 150° |
| 2026-04-12 08:13 | -2.16356 | 106.13817 | 112 ft | 14 kts | 165° |
| 2026-04-12 08:14 | -2.16458 | 106.13854 | 114 ft | 14 kts | 117° |
| 2026-04-12 08:14 | -2.16496 | 106.13943 | 114 ft | 13 kts | 114° |
| 2026-04-12 08:14 | -2.16554 | 106.13989 | 114 ft | 12 kts | 169° |
| 2026-04-12 08:14 | -2.16657 | 106.14019 | 115 ft | 19 kts | 162° |
| 2026-04-12 08:15 | -2.16804 | 106.14060 | 116 ft | 26 kts | 171° |
| 2026-04-12 08:15 | -2.16972 | 106.14105 | 111 ft | 12 kts | 166° |
| 2026-04-12 08:15 | -2.17047 | 106.14146 | 111 ft | 10 kts | 146° |
| 2026-04-12 08:15 | -2.17071 | 106.14113 | 110 ft | 9 kts | 346° |
| 2026-04-12 08:16 | -2.17024 | 106.14118 | 111 ft | 3 kts | 343° |
| 2026-04-12 08:17 | -2.16970 | 106.14103 | 111 ft | 35 kts | 345° |
| 2026-04-12 08:17 | -2.16518 | 106.13975 | 145 ft | 91 kts | 343° |
| 2026-04-12 08:17 | -2.15846 | 106.13755 | 389 ft | 112 kts | 339° |
| 2026-04-12 08:17 | -2.15131 | 106.13398 | 784 ft | 114 kts | 331° |
| 2026-04-12 08:18 | -2.14418 | 106.12986 | 1082 ft | 126 kts | 330° |
| 2026-04-12 08:18 | -2.13628 | 106.12553 | 1445 ft | 131 kts | 333° |
| 2026-04-12 08:18 | -2.12781 | 106.12140 | 1768 ft | 139 kts | 333° |
| 2026-04-12 08:18 | -2.11902 | 106.11712 | 2062 ft | 141 kts | 334° |
| 2026-04-12 08:19 | -2.11053 | 106.11299 | 2437 ft | 136 kts | 333° |
| 2026-04-12 08:19 | -2.10212 | 106.10869 | 2724 ft | 135 kts | 327° |
| 2026-04-12 08:19 | -2.09393 | 106.10404 | 3009 ft | 136 kts | 329° |
| 2026-04-12 08:19 | -2.08551 | 106.09945 | 3241 ft | 141 kts | 330° |
| 2026-04-12 08:20 | -2.07713 | 106.09479 | 3525 ft | 136 kts | 327° |
| 2026-04-12 08:20 | -2.07000 | 106.08864 | 3693 ft | 140 kts | 295° |
| 2026-04-12 08:20 | -2.06386 | 106.08093 | 3858 ft | 151 kts | 328° |
| 2026-04-12 08:20 | -2.05355 | 106.07817 | 4031 ft | 153 kts | 346° |
| 2026-04-12 08:21 | -2.04319 | 106.07603 | 4203 ft | 151 kts | 342° |
| 2026-04-12 08:21 | -2.03399 | 106.07119 | 4380 ft | 152 kts | 323° |
| 2026-04-12 08:21 | -2.02510 | 106.06544 | 4548 ft | 152 kts | 326° |
| 2026-04-12 08:21 | -2.01593 | 106.06015 | 4717 ft | 151 kts | 328° |
| 2026-04-12 08:22 | -2.00673 | 106.05521 | 4878 ft | 150 kts | 329° |
| 2026-04-12 08:22 | -1.99753 | 106.05029 | 5048 ft | 149 kts | 329° |
| 2026-04-12 08:22 | -1.98844 | 106.04550 | 5211 ft | 149 kts | 329° |
| 2026-04-12 08:22 | -1.97935 | 106.04069 | 5377 ft | 147 kts | 329° |
| 2026-04-12 08:23 | -1.97032 | 106.03589 | 5547 ft | 144 kts | 329° |
| 2026-04-12 08:23 | -1.96153 | 106.03120 | 5712 ft | 144 kts | 329° |
| 2026-04-12 08:23 | -1.95268 | 106.02657 | 5880 ft | 143 kts | 329° |
| 2026-04-12 08:23 | -1.94398 | 106.02198 | 6048 ft | 140 kts | 329° |
| 2026-04-12 08:24 | -1.93545 | 106.01744 | 6217 ft | 137 kts | 329° |
| 2026-04-12 08:24 | -1.92707 | 106.01302 | 6372 ft | 134 kts | 328° |
| 2026-04-12 08:24 | -1.91891 | 106.00869 | 6525 ft | 131 kts | 329° |
| 2026-04-12 08:24 | -1.91099 | 106.00448 | 6679 ft | 127 kts | 328° |
| 2026-04-12 08:25 | -1.90334 | 106.00043 | 6833 ft | 124 kts | 328° |
| 2026-04-12 08:25 | -1.89573 | 105.99641 | 6983 ft | 124 kts | 328° |
| 2026-04-12 08:25 | -1.88779 | 105.99218 | 7006 ft | 136 kts | 329° |
| 2026-04-12 08:25 | -1.87913 | 105.98763 | 7012 ft | 144 kts | 329° |
| 2026-04-12 08:26 | -1.87001 | 105.98280 | 7016 ft | 151 kts | 329° |
| 2026-04-12 08:26 | -1.86052 | 105.97780 | 7017 ft | 156 kts | 330° |
| 2026-04-12 08:26 | -1.85080 | 105.97267 | 7020 ft | 159 kts | 329° |
| 2026-04-12 08:26 | -1.84092 | 105.96745 | 7016 ft | 162 kts | 329° |
| 2026-04-12 08:27 | -1.83094 | 105.96216 | 7018 ft | 163 kts | 330° |
| 2026-04-12 08:27 | -1.82104 | 105.95694 | 7014 ft | 163 kts | 330° |
| 2026-04-12 08:27 | -1.81097 | 105.95160 | 7012 ft | 163 kts | 329° |
| 2026-04-12 08:27 | -1.80094 | 105.94631 | 7019 ft | 164 kts | 329° |
| 2026-04-12 08:28 | -1.79081 | 105.94094 | 7011 ft | 164 kts | 330° |
| 2026-04-12 08:28 | -1.78072 | 105.93559 | 7013 ft | 164 kts | 330° |
| 2026-04-12 08:28 | -1.77064 | 105.93027 | 7011 ft | 163 kts | 329° |
| 2026-04-12 08:28 | -1.76059 | 105.92495 | 7012 ft | 163 kts | 329° |
| 2026-04-12 08:29 | -1.75059 | 105.91964 | 7014 ft | 164 kts | 329° |
| 2026-04-12 08:29 | -1.74061 | 105.91437 | 7011 ft | 163 kts | 329° |
| 2026-04-12 08:29 | -1.73046 | 105.90900 | 7013 ft | 163 kts | 329° |
| 2026-04-12 08:29 | -1.72047 | 105.90372 | 7010 ft | 162 kts | 329° |
| 2026-04-12 08:30 | -1.71046 | 105.89843 | 7012 ft | 163 kts | 329° |
| 2026-04-12 08:30 | -1.70046 | 105.89314 | 7012 ft | 163 kts | 329° |
| 2026-04-12 08:30 | -1.69053 | 105.88789 | 7011 ft | 162 kts | 329° |
| 2026-04-12 08:30 | -1.68057 | 105.88261 | 7012 ft | 162 kts | 329° |
| 2026-04-12 08:31 | -1.67056 | 105.87731 | 7010 ft | 163 kts | 329° |
| 2026-04-12 08:31 | -1.66053 | 105.87201 | 7011 ft | 163 kts | 329° |
| 2026-04-12 08:31 | -1.65049 | 105.86670 | 7013 ft | 164 kts | 330° |
| 2026-04-12 08:31 | -1.64042 | 105.86137 | 7011 ft | 164 kts | 329° |
| 2026-04-12 08:32 | -1.63035 | 105.85604 | 7014 ft | 163 kts | 329° |
| 2026-04-12 08:32 | -1.62041 | 105.85078 | 7015 ft | 164 kts | 329° |
| 2026-04-12 08:32 | -1.61022 | 105.84541 | 7014 ft | 164 kts | 329° |
| 2026-04-12 08:32 | -1.60030 | 105.84016 | 7014 ft | 163 kts | 329° |
| 2026-04-12 08:33 | -1.59024 | 105.83484 | 7015 ft | 164 kts | 329° |
| 2026-04-12 08:33 | -1.58021 | 105.82952 | 7016 ft | 164 kts | 329° |
| 2026-04-12 08:33 | -1.57014 | 105.82420 | 7015 ft | 163 kts | 329° |
| 2026-04-12 08:33 | -1.56012 | 105.81890 | 7012 ft | 163 kts | 330° |
| 2026-04-12 08:34 | -1.55015 | 105.81362 | 7009 ft | 162 kts | 330° |
| 2026-04-12 08:34 | -1.54014 | 105.80833 | 7009 ft | 162 kts | 330° |
| 2026-04-12 08:34 | -1.53016 | 105.80304 | 7009 ft | 162 kts | 330° |
| 2026-04-12 08:34 | -1.52017 | 105.79777 | 7009 ft | 162 kts | 330° |
| 2026-04-12 08:35 | -1.51020 | 105.79250 | 7009 ft | 162 kts | 330° |
| 2026-04-12 08:35 | -1.50023 | 105.78722 | 7011 ft | 162 kts | 329° |
| 2026-04-12 08:35 | -1.49025 | 105.78194 | 7010 ft | 162 kts | 330° |
| 2026-04-12 08:35 | -1.48027 | 105.77666 | 7009 ft | 162 kts | 330° |
| 2026-04-12 08:36 | -1.47029 | 105.77138 | 7008 ft | 162 kts | 330° |
| 2026-04-12 08:36 | -1.46033 | 105.76612 | 7009 ft | 162 kts | 330° |
| 2026-04-12 08:36 | -1.45040 | 105.76087 | 7009 ft | 162 kts | 330° |
| 2026-04-12 08:36 | -1.44045 | 105.75560 | 7009 ft | 162 kts | 330° |
| 2026-04-12 08:37 | -1.43053 | 105.75036 | 7010 ft | 162 kts | 330° |
| 2026-04-12 08:37 | -1.42057 | 105.74509 | 7009 ft | 162 kts | 330° |
| 2026-04-12 08:37 | -1.41072 | 105.73988 | 7013 ft | 162 kts | 330° |
| 2026-04-12 08:37 | -1.40062 | 105.73454 | 7014 ft | 165 kts | 330° |
| 2026-04-12 08:38 | -1.39045 | 105.72917 | 7010 ft | 166 kts | 330° |
| 2026-04-12 08:38 | -1.38027 | 105.72377 | 7010 ft | 164 kts | 330° |
| 2026-04-12 08:38 | -1.37018 | 105.71844 | 7009 ft | 163 kts | 330° |
| 2026-04-12 08:38 | -1.36016 | 105.71315 | 7007 ft | 163 kts | 330° |